createdAt,value
2018-03-22T00:00:15.907Z,1015.59
2018-03-22T00:01:15.882Z,1015.59
2018-03-22T00:02:15.851Z,1015.59
2018-03-22T00:03:15.826Z,1015.57
2018-03-22T00:04:15.811Z,1015.54
2018-03-22T00:05:15.784Z,1015.54
2018-03-22T00:06:15.747Z,1015.56
2018-03-22T00:07:15.722Z,1015.55
2018-03-22T00:08:15.697Z,1015.54
2018-03-22T00:09:15.669Z,1015.56
2018-03-22T00:10:15.647Z,1015.57
2018-03-22T00:11:15.618Z,1015.52
2018-03-22T00:12:15.595Z,1015.56
2018-03-22T00:13:15.571Z,1015.59
2018-03-22T00:14:15.539Z,1015.56
2018-03-22T00:15:15.515Z,1015.54
2018-03-22T00:16:15.487Z,1015.48
2018-03-22T00:17:15.462Z,1015.54
2018-03-22T00:18:15.437Z,1015.50
2018-03-22T00:19:15.412Z,1015.46
2018-03-22T00:20:15.383Z,1015.49
2018-03-22T00:21:15.359Z,1015.49
2018-03-22T00:22:15.341Z,1015.39
2018-03-22T00:23:15.305Z,1015.40
2018-03-22T00:24:15.278Z,1015.40
2018-03-22T00:25:15.261Z,1015.34
2018-03-22T00:26:15.227Z,1015.34
2018-03-22T00:27:15.203Z,1015.37
2018-03-22T00:28:15.175Z,1015.33
2018-03-22T00:29:15.151Z,1015.28
2018-03-22T00:30:15.122Z,1015.28
2018-03-22T00:31:15.097Z,1015.23
2018-03-22T00:32:15.070Z,1015.26
2018-03-22T00:33:15.043Z,1015.24
2018-03-22T00:34:15.018Z,1015.24
2018-03-22T00:35:14.990Z,1015.22
2018-03-22T00:36:14.980Z,1015.13
2018-03-22T00:37:14.938Z,1015.12
2018-03-22T00:38:14.913Z,1015.07
2018-03-22T00:39:14.896Z,1015.08
2018-03-22T00:40:14.858Z,1015.06
2018-03-22T00:41:14.831Z,1014.98
2018-03-22T00:42:14.806Z,1014.94
2018-03-22T00:43:14.792Z,1014.91
2018-03-22T00:44:14.756Z,1014.91
2018-03-22T00:45:14.726Z,1014.85
2018-03-22T00:46:14.701Z,1014.86
2018-03-22T00:47:14.675Z,1014.80
2018-03-22T00:48:14.650Z,1014.79
2018-03-22T00:49:14.624Z,1014.72
2018-03-22T00:50:14.597Z,1014.72
2018-03-22T00:51:14.573Z,1014.64
2018-03-22T00:52:14.544Z,1014.65
2018-03-22T00:53:14.520Z,1014.64
2018-03-22T00:54:14.493Z,1014.64
2018-03-22T00:55:14.487Z,1014.76
2018-03-22T00:56:14.442Z,1014.63
2018-03-22T00:57:14.414Z,1014.62
2018-03-22T00:58:14.407Z,1014.63
2018-03-22T00:59:14.361Z,1014.59
2018-03-22T01:00:14.334Z,1014.56
2018-03-22T01:01:14.308Z,1014.61
2018-03-22T01:02:14.281Z,1014.55
2018-03-22T01:03:14.254Z,1014.60
2018-03-22T01:04:14.232Z,1014.52
2018-03-22T01:05:14.205Z,1014.62
2018-03-22T01:06:14.178Z,1014.50
2018-03-22T01:07:14.151Z,1014.44
2018-03-22T01:08:14.123Z,1014.41
2018-03-22T01:09:14.111Z,1014.40
2018-03-22T01:10:14.071Z,1014.38
2018-03-22T01:11:14.044Z,1014.40
2018-03-22T01:12:14.018Z,1014.35
2018-03-22T01:13:13.993Z,1014.31
2018-03-22T01:14:13.965Z,1014.29
2018-03-22T01:15:13.942Z,1014.28
2018-03-22T01:16:13.913Z,1014.21
2018-03-22T01:17:13.890Z,1014.21
2018-03-22T01:18:13.862Z,1014.13
2018-03-22T01:19:13.837Z,1014.12
2018-03-22T01:20:13.809Z,1014.12
2018-03-22T01:21:13.784Z,1014.12
2018-03-22T01:22:13.757Z,1014.04
2018-03-22T01:23:13.743Z,1014.06
2018-03-22T01:24:13.705Z,1014.03
2018-03-22T01:25:13.680Z,1013.99
2018-03-22T01:26:13.651Z,1013.94
2018-03-22T01:27:13.628Z,1013.89
2018-03-22T01:28:13.599Z,1013.90
2018-03-22T01:29:13.574Z,1013.89
2018-03-22T01:30:13.548Z,1013.90
2018-03-22T01:31:13.521Z,1013.87
2018-03-22T01:32:13.493Z,1013.84
2018-03-22T01:33:13.480Z,1013.78
2018-03-22T01:34:13.445Z,1013.80
2018-03-22T01:35:13.416Z,1013.78
2018-03-22T01:36:13.390Z,1013.72
2018-03-22T01:37:13.367Z,1013.76
2018-03-22T01:38:13.340Z,1013.72
2018-03-22T01:39:13.310Z,1013.66
2018-03-22T01:40:13.292Z,1013.60
2018-03-22T01:41:13.263Z,1013.60
2018-03-22T01:42:13.234Z,1013.61
2018-03-22T01:43:13.206Z,1013.55
2018-03-22T01:44:13.180Z,1013.54
2018-03-22T01:45:13.155Z,1013.52
2018-03-22T01:46:13.137Z,1013.52
2018-03-22T01:47:13.107Z,1013.49
2018-03-22T01:48:13.076Z,1013.49
2018-03-22T01:49:13.052Z,1013.50
2018-03-22T01:50:13.027Z,1013.41
2018-03-22T01:51:12.998Z,1013.35
2018-03-22T01:52:12.971Z,1013.40
2018-03-22T01:53:12.944Z,1013.36
2018-03-22T01:54:12.919Z,1013.38
2018-03-22T01:55:12.899Z,1013.36
2018-03-22T01:56:12.867Z,1013.33
2018-03-22T01:57:12.841Z,1013.31
2018-03-22T01:58:12.817Z,1013.28
2018-03-22T01:59:12.788Z,1013.31
2018-03-22T02:00:12.765Z,1013.23
2018-03-22T02:01:12.735Z,1013.29
2018-03-22T02:02:12.716Z,1013.32
2018-03-22T02:03:12.684Z,1013.33
2018-03-22T02:04:12.659Z,1013.35
2018-03-22T02:05:12.630Z,1013.35
2018-03-22T02:06:12.607Z,1013.35
2018-03-22T02:07:12.580Z,1013.31
2018-03-22T02:08:12.553Z,1013.28
2018-03-22T02:09:12.526Z,1013.27
2018-03-22T02:10:12.500Z,1013.24
2018-03-22T02:11:12.473Z,1013.22
2018-03-22T02:12:12.451Z,1013.20
2018-03-22T02:13:12.420Z,1013.16
2018-03-22T02:14:12.400Z,1013.15
2018-03-22T02:15:12.370Z,1013.13
2018-03-22T02:16:12.345Z,1013.07
2018-03-22T02:17:12.316Z,1013.03
2018-03-22T02:18:12.290Z,1013.05
2018-03-22T02:19:12.360Z,1013.06
2018-03-22T02:20:12.237Z,1013.07
2018-03-22T02:21:12.212Z,1013.00
2018-03-22T02:22:12.193Z,1013.05
2018-03-22T02:23:12.160Z,1013.04
2018-03-22T02:24:12.133Z,1012.98
2018-03-22T02:25:12.118Z,1013.00
2018-03-22T02:26:12.083Z,1013.00
2018-03-22T02:27:12.056Z,1013.04
2018-03-22T02:28:12.030Z,1012.96
2018-03-22T02:29:12.003Z,1012.96
2018-03-22T02:30:11.976Z,1012.96
2018-03-22T02:31:11.955Z,1012.87
2018-03-22T02:32:11.939Z,1012.90
2018-03-22T02:33:11.900Z,1012.88
2018-03-22T02:34:11.875Z,1012.83
2018-03-22T02:35:11.846Z,1012.83
2018-03-22T02:36:11.820Z,1012.81
2018-03-22T02:37:11.795Z,1012.78
2018-03-22T02:38:11.770Z,1012.73
2018-03-22T02:39:11.746Z,1012.75
2018-03-22T02:40:11.713Z,1012.70
2018-03-22T02:41:11.696Z,1012.62
2018-03-22T02:42:11.677Z,1012.52
2018-03-22T02:43:11.638Z,1012.52
2018-03-22T02:44:11.613Z,1012.49
2018-03-22T02:45:11.590Z,1012.51
2018-03-22T02:46:11.560Z,1012.48
2018-03-22T02:47:11.533Z,1012.46
2018-03-22T02:48:11.514Z,1012.43
2018-03-22T02:49:11.481Z,1012.43
2018-03-22T02:50:11.454Z,1012.40
2018-03-22T02:51:11.432Z,1012.50
2018-03-22T02:52:11.402Z,1012.40
2018-03-22T02:53:11.378Z,1012.39
2018-03-22T02:54:11.354Z,1012.34
2018-03-22T02:55:11.324Z,1012.31
2018-03-22T02:56:11.307Z,1012.35
2018-03-22T02:57:11.273Z,1012.25
2018-03-22T02:58:11.245Z,1012.25
2018-03-22T02:59:11.223Z,1012.22
2018-03-22T03:00:11.192Z,1012.17
2018-03-22T03:01:11.170Z,1012.16
2018-03-22T03:02:11.139Z,1012.18
2018-03-22T03:03:11.127Z,1012.07
2018-03-22T03:04:11.090Z,1012.05
2018-03-22T03:05:11.067Z,1012.08
2018-03-22T03:06:11.037Z,1012.02
2018-03-22T03:07:11.011Z,1011.91
2018-03-22T03:08:10.984Z,1011.97
2018-03-22T03:09:10.956Z,1011.99
2018-03-22T03:10:10.932Z,1011.89
2018-03-22T03:11:10.904Z,1011.93
2018-03-22T03:12:10.877Z,1011.85
2018-03-22T03:13:10.854Z,1011.81
2018-03-22T03:14:10.827Z,1011.82
2018-03-22T03:15:10.799Z,1011.90
2018-03-22T03:16:10.772Z,1011.74
2018-03-22T03:17:10.745Z,1011.70
2018-03-22T03:18:10.728Z,1011.77
2018-03-22T03:19:10.699Z,1011.71
2018-03-22T03:20:10.676Z,1011.70
2018-03-22T03:21:10.643Z,1011.82
2018-03-22T03:22:10.612Z,1011.65
2018-03-22T03:23:10.591Z,1011.64
2018-03-22T03:24:10.564Z,1011.68
2018-03-22T03:25:10.539Z,1011.65
2018-03-22T03:26:10.517Z,1011.59
2018-03-22T03:27:10.483Z,1011.58
2018-03-22T03:28:10.456Z,1011.55
2018-03-22T03:29:10.434Z,1011.57
2018-03-22T03:30:10.406Z,1011.59
2018-03-22T03:31:10.380Z,1011.49
2018-03-22T03:32:10.351Z,1011.47
2018-03-22T03:33:10.325Z,1011.49
2018-03-22T03:34:10.297Z,1011.51
2018-03-22T03:35:10.274Z,1011.42
2018-03-22T03:36:10.244Z,1011.39
2018-03-22T03:37:10.219Z,1011.43
2018-03-22T03:38:10.193Z,1011.37
2018-03-22T03:39:10.173Z,1011.43
2018-03-22T03:40:10.142Z,1011.39
2018-03-22T03:41:10.116Z,1011.34
2018-03-22T03:42:10.093Z,1011.28
2018-03-22T03:43:10.063Z,1011.38
2018-03-22T03:44:10.039Z,1011.34
2018-03-22T03:45:10.009Z,1011.35
2018-03-22T03:46:09.983Z,1011.34
2018-03-22T03:47:09.958Z,1011.35
2018-03-22T03:48:09.930Z,1011.37
2018-03-22T03:49:09.906Z,1011.32
2018-03-22T03:50:09.880Z,1011.30
2018-03-22T03:51:09.860Z,1011.35
2018-03-22T03:52:09.824Z,1011.35
2018-03-22T03:53:09.799Z,1011.31
2018-03-22T03:54:09.773Z,1011.30
2018-03-22T03:55:09.746Z,1011.25
2018-03-22T03:56:09.720Z,1011.20
2018-03-22T03:57:09.698Z,1011.25
2018-03-22T03:58:09.687Z,1011.16
2018-03-22T03:59:09.640Z,1011.12
2018-03-22T04:00:09.613Z,1011.10
2018-03-22T04:01:09.587Z,1011.15
2018-03-22T04:02:09.560Z,1011.20
2018-03-22T04:03:09.536Z,1011.15
2018-03-22T04:04:09.508Z,1011.19
2018-03-22T04:05:09.481Z,1011.13
2018-03-22T04:06:09.458Z,1011.12
2018-03-22T04:07:09.430Z,1011.12
2018-03-22T04:08:09.402Z,1010.92
2018-03-22T04:09:09.376Z,1010.88
2018-03-22T04:10:09.352Z,1010.97
2018-03-22T04:11:09.325Z,1010.93
2018-03-22T04:12:09.296Z,1010.89
2018-03-22T04:13:09.270Z,1010.85
2018-03-22T04:14:09.243Z,1010.80
2018-03-22T04:15:09.217Z,1010.76
2018-03-22T04:16:09.193Z,1010.77
2018-03-22T04:17:09.164Z,1010.76
2018-03-22T04:18:09.139Z,1010.74
2018-03-22T04:19:09.112Z,1010.82
2018-03-22T04:20:09.085Z,1010.72
2018-03-22T04:21:09.059Z,1010.71
2018-03-22T04:22:09.036Z,1010.75
2018-03-22T04:23:09.006Z,1010.72
2018-03-22T04:24:08.978Z,1010.73
2018-03-22T04:25:08.953Z,1010.75
2018-03-22T04:26:08.925Z,1010.71
2018-03-22T04:27:08.900Z,1010.71
2018-03-22T04:28:08.872Z,1010.70
2018-03-22T04:29:08.844Z,1010.64
2018-03-22T04:30:08.823Z,1010.61
2018-03-22T04:31:08.796Z,1010.62
2018-03-22T04:32:08.766Z,1010.65
2018-03-22T04:33:08.781Z,1010.64
2018-03-22T04:34:08.768Z,1010.61
2018-03-22T04:35:08.686Z,1010.58
2018-03-22T04:36:08.665Z,1010.57
2018-03-22T04:37:08.636Z,1010.52
2018-03-22T04:38:08.658Z,1010.51
2018-03-22T04:39:08.582Z,1010.47
2018-03-22T04:40:08.561Z,1010.50
2018-03-22T04:41:08.544Z,1010.48
2018-03-22T04:42:08.502Z,1010.46
2018-03-22T04:43:08.486Z,1010.42
2018-03-22T04:44:08.448Z,1010.45
2018-03-22T04:45:08.423Z,1010.42
2018-03-22T04:46:08.454Z,1010.39
2018-03-22T04:47:08.382Z,1010.40
2018-03-22T04:48:08.394Z,1010.39
2018-03-22T04:49:08.318Z,1010.38
2018-03-22T04:50:08.292Z,1010.38
2018-03-22T04:51:08.265Z,1010.35
2018-03-22T04:52:08.242Z,1010.33
2018-03-22T04:53:08.240Z,1010.25
2018-03-22T04:54:08.197Z,1010.34
2018-03-22T04:55:08.165Z,1010.25
2018-03-22T04:56:08.132Z,1010.22
2018-03-22T04:57:08.134Z,1010.13
2018-03-22T04:58:08.081Z,1010.22
2018-03-22T04:59:08.053Z,1010.10
2018-03-22T05:00:08.035Z,1010.15
2018-03-22T05:01:08.008Z,1010.07
2018-03-22T05:02:07.984Z,1010.10
2018-03-22T05:03:07.954Z,1010.14
2018-03-22T05:04:07.941Z,1010.11
2018-03-22T05:05:07.940Z,1010.13
2018-03-22T05:06:07.923Z,1010.07
2018-03-22T05:07:07.846Z,1010.08
2018-03-22T05:08:07.814Z,1010.03
2018-03-22T05:09:07.823Z,1010.06
2018-03-22T05:10:07.764Z,1010.10
2018-03-22T05:11:07.744Z,1010.06
2018-03-22T05:12:07.714Z,1010.13
2018-03-22T05:13:07.684Z,1010.01
2018-03-22T05:14:07.665Z,1010.08
2018-03-22T05:15:07.635Z,1010.01
2018-03-22T05:16:07.628Z,1009.97
2018-03-22T05:17:07.579Z,1009.98
2018-03-22T05:18:07.560Z,1009.99
2018-03-22T05:19:07.583Z,1010.09
2018-03-22T05:20:07.501Z,1010.02
2018-03-22T05:21:07.494Z,1009.99
2018-03-22T05:22:07.442Z,1009.90
2018-03-22T05:23:07.427Z,1009.94
2018-03-22T05:24:07.389Z,1009.92
2018-03-22T05:25:07.366Z,1009.94
2018-03-22T05:26:07.352Z,1010.08
2018-03-22T05:27:07.319Z,1009.91
2018-03-22T05:28:07.306Z,1009.89
2018-03-22T05:29:07.258Z,1009.87
2018-03-22T05:30:07.250Z,1009.91
2018-03-22T05:31:07.209Z,1009.75
2018-03-22T05:32:07.219Z,1009.82
2018-03-22T05:33:07.150Z,1009.70
2018-03-22T05:34:07.124Z,1009.72
2018-03-22T05:35:07.098Z,1009.65
2018-03-22T05:36:07.083Z,1009.68
2018-03-22T05:37:07.044Z,1009.65
2018-03-22T05:38:07.022Z,1009.60
2018-03-22T05:39:06.992Z,1009.58
2018-03-22T05:40:06.980Z,1009.60
2018-03-22T05:41:06.949Z,1009.58
2018-03-22T05:42:06.919Z,1009.61
2018-03-22T05:43:06.886Z,1009.60
2018-03-22T05:44:06.867Z,1009.55
2018-03-22T05:45:06.832Z,1009.68
2018-03-22T05:46:06.805Z,1009.62
2018-03-22T05:47:06.820Z,1009.60
2018-03-22T05:48:06.751Z,1009.56
2018-03-22T05:49:06.724Z,1009.54
2018-03-22T05:50:06.696Z,1009.46
2018-03-22T05:51:06.672Z,1009.49
2018-03-22T05:52:06.658Z,1009.43
2018-03-22T05:53:06.618Z,1009.42
2018-03-22T05:54:06.592Z,1009.46
2018-03-22T05:55:06.565Z,1009.51
2018-03-22T05:56:06.536Z,1009.50
2018-03-22T05:57:06.510Z,1009.46
2018-03-22T05:58:06.484Z,1009.49
2018-03-22T05:59:06.459Z,1009.55
2018-03-22T06:00:06.432Z,1009.53
2018-03-22T06:01:06.424Z,1009.54
2018-03-22T06:02:06.402Z,1009.48
2018-03-22T06:03:06.418Z,1009.44
2018-03-22T06:04:06.324Z,1009.44
2018-03-22T06:05:06.298Z,1009.40
2018-03-22T06:06:06.273Z,1009.38
2018-03-22T06:07:06.251Z,1009.36
2018-03-22T06:08:06.219Z,1009.35
2018-03-22T06:09:06.190Z,1009.36
2018-03-22T06:10:06.334Z,1009.29
2018-03-22T06:11:06.138Z,1009.31
2018-03-22T06:12:06.150Z,1009.25
2018-03-22T06:13:06.310Z,1009.21
2018-03-22T06:14:06.059Z,1009.26
2018-03-22T06:15:06.034Z,1009.21
2018-03-22T06:16:06.016Z,1009.24
2018-03-22T06:17:05.980Z,1009.25
2018-03-22T06:18:05.952Z,1009.28
2018-03-22T06:19:06.829Z,1009.24
2018-03-22T06:20:05.935Z,1009.22
2018-03-22T06:21:05.873Z,1009.20
2018-03-22T06:22:05.847Z,1009.17
2018-03-22T06:23:05.819Z,1009.12
2018-03-22T06:24:05.794Z,1009.12
2018-03-22T06:25:05.768Z,1009.11
2018-03-22T06:26:05.741Z,1009.17
2018-03-22T06:27:05.713Z,1009.12
2018-03-22T06:28:05.692Z,1009.13
2018-03-22T06:29:05.658Z,1009.11
2018-03-22T06:30:05.632Z,1009.05
2018-03-22T06:31:05.607Z,1009.04
2018-03-22T06:32:05.576Z,1009.03
2018-03-22T06:33:05.553Z,1009.00
2018-03-22T06:34:05.525Z,1009.01
2018-03-22T06:35:05.506Z,1009.02
2018-03-22T06:36:05.472Z,1009.05
2018-03-22T06:37:05.449Z,1009.02
2018-03-22T06:38:05.419Z,1008.94
2018-03-22T06:39:05.391Z,1008.99
2018-03-22T06:40:05.377Z,1008.98
2018-03-22T06:41:05.339Z,1008.94
2018-03-22T06:42:05.786Z,1008.93
2018-03-22T06:43:05.283Z,1008.95
2018-03-22T06:44:05.259Z,1008.96
2018-03-22T06:45:05.230Z,1008.97
2018-03-22T06:46:05.203Z,1008.97
2018-03-22T06:47:05.180Z,1008.93
2018-03-22T06:48:05.150Z,1008.91
2018-03-22T06:49:05.126Z,1008.93
2018-03-22T06:50:05.097Z,1008.99
2018-03-22T06:51:05.073Z,1008.96
2018-03-22T06:52:05.044Z,1008.93
2018-03-22T06:53:05.020Z,1008.93
2018-03-22T06:54:04.996Z,1008.92
2018-03-22T06:55:04.962Z,1008.82
2018-03-22T06:56:04.937Z,1008.85
2018-03-22T06:57:04.919Z,1008.85
2018-03-22T06:58:04.885Z,1008.87
2018-03-22T06:59:04.857Z,1008.93
2018-03-22T07:00:04.830Z,1008.96
2018-03-22T07:01:04.801Z,1009.01
2018-03-22T07:02:04.781Z,1008.91
2018-03-22T07:03:04.775Z,1008.90
2018-03-22T07:04:04.721Z,1008.92
2018-03-22T07:05:04.723Z,1008.98
2018-03-22T07:06:04.693Z,1009.02
2018-03-22T07:07:04.645Z,1008.96
2018-03-22T07:08:04.620Z,1008.91
2018-03-22T07:09:04.589Z,1008.89
2018-03-22T07:10:04.563Z,1008.86
2018-03-22T07:11:04.538Z,1008.88
2018-03-22T07:12:04.507Z,1008.88
2018-03-22T07:13:04.480Z,1008.83
2018-03-22T07:14:04.455Z,1008.84
2018-03-22T07:15:04.430Z,1008.87
2018-03-22T07:16:04.399Z,1008.81
2018-03-22T07:17:04.374Z,1008.80
2018-03-22T07:18:04.375Z,1008.72
2018-03-22T07:19:04.322Z,1008.67
2018-03-22T07:20:04.298Z,1008.73
2018-03-22T07:21:04.267Z,1008.68
2018-03-22T07:22:04.241Z,1008.71
2018-03-22T07:23:04.218Z,1008.66
2018-03-22T07:24:04.186Z,1008.66
2018-03-22T07:25:04.159Z,1008.70
2018-03-22T07:26:04.135Z,1008.63
2018-03-22T07:27:04.108Z,1008.64
2018-03-22T07:28:04.086Z,1008.73
2018-03-22T07:29:04.070Z,1008.63
2018-03-22T07:30:04.026Z,1008.60
2018-03-22T07:31:04.002Z,1008.61
2018-03-22T07:32:03.973Z,1008.66
2018-03-22T07:33:03.946Z,1008.64
2018-03-22T07:34:03.921Z,1008.66
2018-03-22T07:35:03.895Z,1008.66
2018-03-22T07:36:03.866Z,1008.63
2018-03-22T07:37:03.843Z,1008.67
2018-03-22T07:38:03.812Z,1008.68
2018-03-22T07:39:03.798Z,1008.66
2018-03-22T07:40:03.762Z,1008.81
2018-03-22T07:41:04.338Z,1008.49
2018-03-22T07:42:03.706Z,1008.53
2018-03-22T07:43:03.688Z,1008.49
2018-03-22T07:44:03.670Z,1008.46
2018-03-22T07:45:03.644Z,1008.50
2018-03-22T07:46:03.600Z,1008.62
2018-03-22T07:47:03.575Z,1008.58
2018-03-22T07:48:03.547Z,1008.55
2018-03-22T07:49:03.526Z,1008.41
2018-03-22T07:50:03.502Z,1008.40
2018-03-22T07:51:03.474Z,1008.38
2018-03-22T07:52:03.458Z,1008.38
2018-03-22T07:53:03.413Z,1008.39
2018-03-22T07:54:03.388Z,1008.44
2018-03-22T07:55:03.361Z,1008.46
2018-03-22T07:56:03.349Z,1008.43
2018-03-22T07:57:03.310Z,1008.38
2018-03-22T07:58:03.282Z,1008.41
2018-03-22T07:59:03.257Z,1008.36
2018-03-22T08:00:03.244Z,1008.36
2018-03-22T08:01:03.210Z,1008.28
2018-03-22T08:02:03.175Z,1008.28
2018-03-22T08:03:03.149Z,1008.22
2018-03-22T08:04:03.123Z,1008.31
2018-03-22T08:05:03.094Z,1008.19
2018-03-22T08:06:03.070Z,1008.22
2018-03-22T08:07:03.043Z,1008.15
2018-03-22T08:08:03.015Z,1008.15
2018-03-22T08:09:02.991Z,1008.23
2018-03-22T08:10:02.984Z,1008.18
2018-03-22T08:11:02.936Z,1008.20
2018-03-22T08:12:02.912Z,1008.22
2018-03-22T08:13:02.885Z,1008.20
2018-03-22T08:14:02.861Z,1008.22
2018-03-22T08:15:02.842Z,1008.23
2018-03-22T08:16:02.809Z,1008.15
2018-03-22T08:17:02.802Z,1008.14
2018-03-22T08:18:02.752Z,1008.17
2018-03-22T08:19:02.720Z,1008.14
2018-03-22T08:20:02.696Z,1008.12
2018-03-22T08:21:02.667Z,1008.10
2018-03-22T08:22:02.639Z,1008.14
2018-03-22T08:23:02.613Z,1008.12
2018-03-22T08:24:02.587Z,1008.12
2018-03-22T08:25:02.558Z,1008.12
2018-03-22T08:26:02.537Z,1008.13
2018-03-22T08:27:02.511Z,1008.12
2018-03-22T08:28:02.481Z,1008.11
2018-03-22T08:29:02.457Z,1008.11
2018-03-22T08:30:02.447Z,1008.14
2018-03-22T08:31:02.399Z,1008.06
2018-03-22T08:32:02.374Z,1008.10
2018-03-22T08:33:02.351Z,1008.07
2018-03-22T08:34:02.320Z,1008.07
2018-03-22T08:35:02.356Z,1008.06
2018-03-22T08:36:02.327Z,1008.11
2018-03-22T08:37:02.240Z,1008.07
2018-03-22T08:38:02.254Z,1008.08
2018-03-22T08:39:02.188Z,1008.04
2018-03-22T08:40:02.172Z,1008.04
2018-03-22T08:41:02.134Z,1007.93
2018-03-22T08:42:02.346Z,1007.89
2018-03-22T08:43:02.082Z,1007.87
2018-03-22T08:44:02.057Z,1007.95
2018-03-22T08:45:02.050Z,1007.90
2018-03-22T08:46:02.006Z,1007.93
2018-03-22T08:47:01.977Z,1007.97
2018-03-22T08:48:01.951Z,1008.00
2018-03-22T08:49:01.923Z,1007.99
2018-03-22T08:50:01.897Z,1007.98
2018-03-22T08:51:01.874Z,1008.03
2018-03-22T08:52:01.844Z,1007.98
2018-03-22T08:53:01.831Z,1008.04
2018-03-22T08:54:01.791Z,1007.95
2018-03-22T08:55:01.768Z,1007.99
2018-03-22T08:56:01.740Z,1007.95
2018-03-22T08:57:01.712Z,1007.93
2018-03-22T08:58:01.684Z,1007.93
2018-03-22T08:59:01.660Z,1007.96
2018-03-22T09:00:01.634Z,1007.96
2018-03-22T09:01:01.610Z,1007.95
2018-03-22T09:02:01.581Z,1007.99
2018-03-22T09:03:01.557Z,1007.90
2018-03-22T09:04:01.527Z,1007.88
2018-03-22T09:05:01.499Z,1007.88
2018-03-22T09:06:01.476Z,1007.86
2018-03-22T09:07:01.451Z,1007.90
2018-03-22T09:08:01.425Z,1007.86
2018-03-22T09:09:01.394Z,1007.88
2018-03-22T09:10:01.369Z,1007.90
2018-03-22T09:11:01.345Z,1007.90
2018-03-22T09:12:01.336Z,1007.88
2018-03-22T09:13:01.295Z,1007.86
2018-03-22T09:14:01.270Z,1007.86
2018-03-22T09:15:01.239Z,1007.89
2018-03-22T09:16:01.214Z,1007.85
2018-03-22T09:17:01.187Z,1007.89
2018-03-22T09:18:01.163Z,1007.88
2018-03-22T09:19:01.135Z,1007.79
2018-03-22T09:20:01.112Z,1007.82
2018-03-22T09:21:01.079Z,1007.77
2018-03-22T09:22:01.063Z,1007.79
2018-03-22T09:23:01.028Z,1007.79
2018-03-22T09:24:01.002Z,1007.87
2018-03-22T09:25:00.979Z,1007.73
2018-03-22T09:26:00.951Z,1007.74
2018-03-22T09:27:00.925Z,1007.72
2018-03-22T09:28:00.910Z,1007.70
2018-03-22T09:29:00.872Z,1007.70
2018-03-22T09:30:00.889Z,1007.71
2018-03-22T09:31:00.821Z,1007.70
2018-03-22T09:32:00.815Z,1007.79
2018-03-22T09:33:00.820Z,1007.72
2018-03-22T09:34:00.784Z,1007.75
2018-03-22T09:35:00.716Z,1007.72
2018-03-22T09:36:00.768Z,1007.76
2018-03-22T09:37:00.663Z,1007.78
2018-03-22T09:38:00.664Z,1007.79
2018-03-22T09:39:00.630Z,1007.84
2018-03-22T09:40:00.588Z,1007.78
2018-03-22T09:41:00.582Z,1007.78
2018-03-22T09:42:00.536Z,1007.80
2018-03-22T09:43:00.508Z,1007.84
2018-03-22T09:44:00.484Z,1007.81
2018-03-22T09:45:00.464Z,1007.70
2018-03-22T09:46:00.480Z,1007.70
2018-03-22T09:47:00.439Z,1007.69
2018-03-22T09:48:00.380Z,1007.66
2018-03-22T09:49:00.355Z,1007.62
2018-03-22T09:50:00.328Z,1007.62
2018-03-22T09:51:00.306Z,1007.66
2018-03-22T09:52:00.283Z,1007.68
2018-03-22T09:53:00.257Z,1007.57
2018-03-22T09:54:00.224Z,1007.59
2018-03-22T09:55:00.205Z,1007.59
2018-03-22T09:56:00.173Z,1007.64
2018-03-22T09:57:00.189Z,1007.61
2018-03-22T09:58:00.122Z,1007.58
2018-03-22T09:59:00.098Z,1007.58
2018-03-22T10:00:00.071Z,1007.59
2018-03-22T10:01:00.047Z,1007.65
2018-03-22T10:02:00.021Z,1007.65
2018-03-22T10:02:59.998Z,1007.63
2018-03-22T10:03:59.967Z,1007.60
2018-03-22T10:04:59.944Z,1007.61
2018-03-22T10:05:59.919Z,1007.65
2018-03-22T10:06:59.893Z,1007.61
2018-03-22T10:07:59.865Z,1007.64
2018-03-22T10:08:59.855Z,1007.63
2018-03-22T10:09:59.818Z,1007.61
2018-03-22T10:10:59.790Z,1007.55
2018-03-22T10:11:59.763Z,1007.53
2018-03-22T10:12:59.738Z,1007.54
2018-03-22T10:13:59.716Z,1007.48
2018-03-22T10:14:59.689Z,1007.60
2018-03-22T10:15:59.662Z,1007.54
2018-03-22T10:16:59.638Z,1007.56
2018-03-22T10:17:59.612Z,1007.55
2018-03-22T10:18:59.587Z,1007.54
2018-03-22T10:19:59.560Z,1007.58
2018-03-22T10:20:59.537Z,1007.53
2018-03-22T10:21:59.512Z,1007.59
2018-03-22T10:22:59.494Z,1007.55
2018-03-22T10:23:59.463Z,1007.54
2018-03-22T10:24:59.439Z,1007.59
2018-03-22T10:25:59.415Z,1007.60
2018-03-22T10:26:59.387Z,1007.60
2018-03-22T10:27:59.380Z,1007.59
2018-03-22T10:28:59.337Z,1007.60
2018-03-22T10:29:59.331Z,1007.51
2018-03-22T10:30:59.288Z,1007.53
2018-03-22T10:31:59.332Z,1007.54
2018-03-22T10:32:59.239Z,1007.50
2018-03-22T10:33:59.262Z,1007.50
2018-03-22T10:34:59.187Z,1007.49
2018-03-22T10:35:59.237Z,1007.45
2018-03-22T10:36:59.138Z,1007.44
2018-03-22T10:37:59.114Z,1007.49
2018-03-22T10:38:59.088Z,1007.45
2018-03-22T10:39:59.062Z,1007.45
2018-03-22T10:40:59.036Z,1007.44
2018-03-22T10:41:59.075Z,1007.40
2018-03-22T10:42:58.988Z,1007.48
2018-03-22T10:43:59.180Z,1007.46
2018-03-22T10:44:58.938Z,1007.45
2018-03-22T10:45:58.916Z,1007.45
2018-03-22T10:46:58.891Z,1007.49
2018-03-22T10:47:58.866Z,1007.46
2018-03-22T10:48:58.841Z,1007.42
2018-03-22T10:49:58.814Z,1007.39
2018-03-22T10:50:58.797Z,1007.37
2018-03-22T10:51:58.762Z,1007.33
2018-03-22T10:52:58.740Z,1007.35
2018-03-22T10:53:58.760Z,1007.34
2018-03-22T10:54:58.690Z,1007.28
2018-03-22T10:55:58.703Z,1007.28
2018-03-22T10:56:58.647Z,1007.26
2018-03-22T10:57:58.617Z,1007.29
2018-03-22T10:58:58.612Z,1007.27
2018-03-22T10:59:58.573Z,1007.27
2018-03-22T11:00:58.547Z,1007.31
2018-03-22T11:01:58.534Z,1007.26
2018-03-22T11:02:58.522Z,1007.24
2018-03-22T11:03:58.496Z,1007.24
2018-03-22T11:04:58.447Z,1007.23
2018-03-22T11:05:58.425Z,1007.19
2018-03-22T11:06:58.398Z,1007.20
2018-03-22T11:07:58.372Z,1007.24
2018-03-22T11:08:58.351Z,1007.20
2018-03-22T11:09:58.328Z,1007.23
2018-03-22T11:10:58.301Z,1007.21
2018-03-22T11:11:58.278Z,1007.18
2018-03-22T11:12:58.256Z,1007.17
2018-03-22T11:13:58.233Z,1007.17
2018-03-22T11:14:59.135Z,1007.15
2018-03-22T11:15:58.180Z,1007.09
2018-03-22T11:16:58.157Z,1007.12
2018-03-22T11:17:58.133Z,1007.09
2018-03-22T11:18:58.110Z,1007.13
2018-03-22T11:19:58.085Z,1007.12
2018-03-22T11:20:58.084Z,1007.13
2018-03-22T11:21:58.070Z,1007.03
2018-03-22T11:22:58.024Z,1007.01
2018-03-22T11:24:00.885Z,1007.03
2018-03-22T11:24:57.970Z,1006.97
2018-03-22T11:25:57.951Z,1007.02
2018-03-22T11:26:57.922Z,1006.99
2018-03-22T11:27:57.901Z,1007.01
2018-03-22T11:28:57.882Z,1007.02
2018-03-22T11:29:57.893Z,1007.00
2018-03-22T11:30:57.830Z,1007.02
2018-03-22T11:31:57.809Z,1007.01
2018-03-22T11:32:57.790Z,1007.03
2018-03-22T11:33:57.762Z,1007.02
2018-03-22T11:34:57.740Z,1006.98
2018-03-22T11:35:57.715Z,1007.01
2018-03-22T11:36:57.693Z,1007.04
2018-03-22T11:37:57.671Z,1007.01
2018-03-22T11:38:57.649Z,1006.97
2018-03-22T11:39:57.627Z,1006.95
2018-03-22T11:40:57.603Z,1006.97
2018-03-22T11:41:57.581Z,1006.95
2018-03-22T11:42:57.558Z,1006.97
2018-03-22T11:43:57.540Z,1006.93
2018-03-22T11:44:59.401Z,1006.92
2018-03-22T11:45:57.489Z,1006.96
2018-03-22T11:46:57.468Z,1006.91
2018-03-22T11:47:57.442Z,1006.89
2018-03-22T11:48:57.424Z,1006.91
2018-03-22T11:49:57.398Z,1006.93
2018-03-22T11:50:57.376Z,1006.88
2018-03-22T11:51:57.350Z,1006.90
2018-03-22T11:52:57.327Z,1006.85
2018-03-22T11:53:57.305Z,1006.84
2018-03-22T11:54:57.283Z,1006.87
2018-03-22T11:55:57.261Z,1006.83
2018-03-22T11:56:57.236Z,1006.89
2018-03-22T11:57:57.210Z,1006.89
2018-03-22T11:58:57.190Z,1006.82
2018-03-22T11:59:57.169Z,1006.86
2018-03-22T12:00:57.146Z,1006.81
2018-03-22T12:01:57.190Z,1006.84
2018-03-22T12:02:57.098Z,1006.85
2018-03-22T12:03:57.074Z,1006.83
2018-03-22T12:04:57.051Z,1006.86